Time;durP1;ratioP1;P1;durP2;ratioP2;P2;SDS_P1;SDS_P2;PMS_P1;PMS_P2;Temp;Humidity;BMP_temperature;BMP_pressure;BME280_temperature;BME280_humidity;BME280_pressure;Samples;Min_cycle;Max_cycle;Signal;HPM_P1;HPM_P2
2023/01/19 00:01:29;;;;;;;5.43;2.47;;;11.60;99.90;;;;;;5029449;28;20045;-47
2023/01/19 00:03:55;;;;;;;8.55;2.97;;;11.60;99.90;;;;;;5029621;28;20033;-48
2023/01/19 00:06:21;;;;;;;6.95;3.35;;;11.60;99.90;;;;;;4997886;28;20041;-48
2023/01/19 00:08:49;;;;;;;4.40;2.20;;;11.60;99.90;;;;;;5011796;28;20041;-49
2023/01/19 00:11:16;;;;;;;3.63;1.50;;;11.40;99.90;;;;;;5028913;28;20389;-50
2023/01/19 00:13:49;;;;;;;3.33;2.10;;;11.40;99.90;;;;;;4996399;28;20053;-49
2023/01/19 00:16:20;;;;;;;10.85;4.20;;;11.50;99.90;;;;;;5027423;28;20045;-48
2023/01/19 00:18:46;;;;;;;7.17;3.27;;;11.60;99.90;;;;;;5027737;28;20038;-49
2023/01/19 00:21:13;;;;;;;3.92;2.45;;;11.70;99.90;;;;;;5028908;28;20405;-49
2023/01/19 00:23:39;;;;;;;8.43;3.05;;;11.50;99.90;;;;;;5029872;28;20381;-48
2023/01/19 00:26:05;;;;;;;4.03;2.22;;;11.50;99.90;;;;;;5029052;28;20025;-48
2023/01/19 00:28:31;;;;;;;5.03;2.28;;;11.60;99.90;;;;;;5029249;28;20088;-47
2023/01/19 00:30:57;;;;;;;2.88;1.85;;;11.60;99.90;;;;;;5012431;28;20038;-48
2023/01/19 00:33:22;;;;;;;6.30;2.95;;;11.60;99.90;;;;;;5045129;28;20045;-48
2023/01/19 00:35:53;;;;;;;7.22;2.72;;;11.70;99.90;;;;;;5050704;28;20082;-47
2023/01/19 00:38:19;;;;;;;10.30;5.40;;;11.50;99.90;;;;;;5049406;28;20381;-49
2023/01/19 00:40:46;;;;;;;13.32;7.70;;;11.50;99.90;;;;;;5050181;28;20041;-48
2023/01/19 00:43:12;;;;;;;14.40;7.88;;;11.50;99.90;;;;;;5050615;28;20033;-47
2023/01/19 00:45:37;;;;;;;25.25;14.85;;;11.40;99.90;;;;;;5022450;28;20033;-48
2023/01/19 00:48:03;;;;;;;7.45;3.63;;;11.30;99.90;;;;;;5032766;28;20493;-48
2023/01/19 00:50:31;;;;;;;9.82;4.53;;;11.30;99.90;;;;;;5026998;28;20037;-48
2023/01/19 00:53:01;;;;;;;8.40;3.05;;;11.10;99.90;;;;;;5061061;28;20128;-47
2023/01/19 00:55:32;;;;;;;7.30;3.17;;;11.00;99.90;;;;;;5042928;28;20055;-46
2023/01/19 00:57:58;;;;;;;6.78;3.20;;;;;;;;;;5047277;28;20080;-47
2023/01/19 01:00:24;;;;;;;6.68;2.63;;;10.80;99.90;;;;;;5049972;28;20468;-48
2023/01/19 01:02:51;;;;;;;6.78;2.47;;;10.80;99.90;;;;;;5046896;28;20033;-48
2023/01/19 01:05:18;;;;;;;3.70;2.55;;;10.80;99.90;;;;;;5043383;28;20505;-49
2023/01/19 01:07:44;;;;;;;8.60;2.72;;;10.80;99.90;;;;;;5048704;28;20497;-47
2023/01/19 01:10:22;;;;;;;5.22;2.40;;;10.80;99.90;;;;;;5047347;28;20021;-47
2023/01/19 01:12:48;;;;;;;6.85;2.30;;;10.70;99.90;;;;;;5051123;28;20495;-49
2023/01/19 01:15:15;;;;;;;6.15;2.40;;;10.80;99.90;;;;;;5046921;28;20117;-46
2023/01/19 01:17:45;;;;;;;6.07;2.30;;;10.70;99.90;;;;;;5046708;28;20033;-48
2023/01/19 01:20:15;;;;;;;5.53;2.30;;;10.80;99.90;;;;;;5047938;28;20397;-49
2023/01/19 01:22:44;;;;;;;3.28;1.60;;;10.80;99.90;;;;;;5047799;28;20124;-47
2023/01/19 01:25:11;;;;;;;6.75;2.95;;;10.80;99.90;;;;;;5048117;28;20120;-47
2023/01/19 01:27:37;;;;;;;4.32;2.22;;;10.80;99.90;;;;;;5054964;28;20074;-48
2023/01/19 01:30:05;;;;;;;5.55;2.10;;;10.70;99.90;;;;;;5036728;28;20037;-47
2023/01/19 01:32:30;;;;;;;6.38;2.58;;;10.70;99.90;;;;;;5028633;28;20381;-48
2023/01/19 01:34:56;;;;;;;11.30;2.70;;;10.70;99.90;;;;;;5050619;28;20030;-49
2023/01/19 01:37:22;;;;;;;5.95;2.33;;;10.60;99.90;;;;;;5051725;28;20021;-48
2023/01/19 01:39:47;;;;;;;8.57;4.03;;;10.60;99.90;;;;;;5053078;28;20127;-49
2023/01/19 01:42:16;;;;;;;6.05;3.30;;;10.70;99.90;;;;;;5053748;28;20500;-48
2023/01/19 01:44:48;;;;;;;7.97;4.03;;;10.70;99.90;;;;;;5049789;28;20111;-48
2023/01/19 01:47:20;;;;;;;;;;;10.70;99.90;;;;;;5048498;28;20033;-47
2023/01/19 01:49:47;;;;;;;9.93;4.60;;;10.70;99.90;;;;;;5047044;28;19999;-47
2023/01/19 01:52:13;;;;;;;8.48;2.58;;;10.80;99.90;;;;;;5047231;28;20029;-49
2023/01/19 01:54:40;;;;;;;6.45;2.20;;;10.80;99.90;;;;;;5047910;28;20499;-48
2023/01/19 01:57:11;;;;;;;7.85;2.80;;;10.90;99.90;;;;;;5051541;28;20033;-47
2023/01/19 01:59:44;;;;;;;10.50;4.22;;;10.90;99.90;;;;;;5051402;28;20040;-47
2023/01/19 02:05:35;;;;;;;11.10;6.20;;;11.00;99.90;;;;;;5051609;28;20028;-49
2023/01/19 02:13:44;;;;;;;21.33;11.52;;;11.10;99.90;;;;;;5042693;28;20091;-49
2023/01/19 02:16:11;;;;;;;12.50;5.20;;;11.00;99.90;;;;;;5035091;28;20037;-47
2023/01/19 02:18:38;;;;;;;9.75;2.83;;;11.10;99.90;;;;;;5047547;28;20068;-48
2023/01/19 02:21:34;;;;;;;6.40;2.78;;;11.10;99.90;;;;;;5042876;28;20077;-48
2023/01/19 02:24:01;;;;;;;9.00;4.10;;;11.00;99.90;;;;;;5051420;28;20060;-46
2023/01/19 02:26:34;;;;;;;10.88;3.90;;;11.10;99.90;;;;;;5052662;28;20033;-47
2023/01/19 02:29:05;;;;;;;5.68;2.13;;;11.00;99.90;;;;;;5048700;28;20033;-47
2023/01/19 02:31:33;;;;;;;4.93;1.63;;;11.10;99.90;;;;;;5047145;28;20075;-47
2023/01/19 02:34:01;;;;;;;5.32;2.03;;;11.10;99.90;;;;;;5050726;28;20032;-48
2023/01/19 02:36:39;;;;;;;2.55;1.05;;;11.10;99.90;;;;;;5051933;28;20048;-49
2023/01/19 02:39:08;;;;;;;7.70;1.92;;;;;;;;;;5049346;28;20033;-47
2023/01/19 02:41:41;;;;;;;2.08;1.25;;;11.20;99.90;;;;;;5050885;28;20120;-47
2023/01/19 02:44:08;;;;;;;3.53;1.00;;;11.30;99.90;;;;;;5046596;28;20534;-47
2023/01/19 02:46:35;;;;;;;3.85;1.02;;;11.30;99.90;;;;;;5046357;28;20029;-47
2023/01/19 02:49:01;;;;;;;6.32;1.65;;;11.40;99.90;;;;;;5052030;28;20411;-48
2023/01/19 02:51:28;;;;;;;3.15;0.93;;;;;;;;;;5043324;28;20032;-47
2023/01/19 02:54:05;;;;;;;3.67;1.20;;;;;;;;;;5047243;28;20068;-48
2023/01/19 02:56:39;;;;;;;4.57;1.13;;;;;;;;;;5046680;28;20098;-49
2023/01/19 02:59:23;;;;;;;2.75;1.13;;;;;;;;;;5045327;28;20021;-50
2023/01/19 03:01:49;;;;;;;2.38;1.52;;;;;;;;;;5033415;28;20045;-48
2023/01/19 03:04:27;;;;;;;5.45;1.00;;;;;;;;;;5048753;28;20044;-48
2023/01/19 03:07:12;;;;;;;4.20;1.00;;;;;;;;;;5051826;28;20028;-49
2023/01/19 03:09:46;;;;;;;3.25;1.08;;;;;;;;;;5042682;28;20115;-47
2023/01/19 03:12:30;;;;;;;4.38;1.75;;;;;;;;;;5043472;28;20029;-49
2023/01/19 03:14:59;;;;;;;4.47;1.50;;;;;;;;;;5051919;28;20494;-49
2023/01/19 03:17:26;;;;;;;3.17;1.35;;;;;;;;;;5050147;28;20393;-46
2023/01/19 03:19:53;;;;;;;2.30;0.90;;;;;;;;;;5050186;28;20033;-48
2023/01/19 03:22:24;;;;;;;3.65;1.13;;;;;;;;;;5051803;28;20388;-48
2023/01/19 03:24:50;;;;;;;3.38;1.17;;;;;;;;;;5048121;28;20025;-47
2023/01/19 03:27:19;;;;;;;4.32;2.00;;;;;;;;;;5048854;28;20440;-49
2023/01/19 03:29:49;;;;;;;6.65;2.67;;;;;;;;;;5049650;28;20028;-47
2023/01/19 03:32:18;;;;;;;23.90;7.55;;;11.40;99.90;;;;;;5051606;28;20504;-48
2023/01/19 03:34:46;;;;;;;6.25;2.42;;;;;;;;;;5050569;28;20108;-47
2023/01/19 03:37:15;;;;;;;4.63;2.25;;;11.60;99.90;;;;;;5049890;28;20112;-47
2023/01/19 03:39:41;;;;;;;7.82;2.63;;;;;;;;;;5051878;28;20032;-48
2023/01/19 03:42:11;;;;;;;5.22;1.95;;;11.70;99.90;;;;;;5047578;28;20056;-46
2023/01/19 03:44:39;;;;;;;14.48;2.67;;;11.70;99.90;;;;;;5052605;28;20032;-49
2023/01/19 03:47:07;;;;;;;6.25;2.08;;;11.80;99.90;;;;;;5048810;28;20103;-48
2023/01/19 03:49:35;;;;;;;5.45;2.13;;;11.70;99.90;;;;;;5049956;28;20040;-49
2023/01/19 03:52:01;;;;;;;6.68;2.35;;;11.60;99.90;;;;;;5047742;28;20033;-47
2023/01/19 03:54:27;;;;;;;7.30;2.25;;;11.50;99.90;;;;;;5043705;28;20066;-49
2023/01/19 03:56:53;;;;;;;6.53;2.40;;;11.40;99.90;;;;;;5048967;28;20021;-49
2023/01/19 03:59:20;;;;;;;6.50;2.53;;;11.30;99.90;;;;;;5047748;28;20111;-48
2023/01/19 04:01:46;;;;;;;8.45;2.38;;;11.20;99.90;;;;;;5050098;28;20041;-48
2023/01/19 04:04:13;;;;;;;5.82;2.58;;;11.20;99.90;;;;;;5012948;28;20041;-48
2023/01/19 04:06:39;;;;;;;5.20;2.72;;;11.00;99.90;;;;;;5046873;28;20032;-46
2023/01/19 04:09:05;;;;;;;7.75;2.75;;;11.00;99.90;;;;;;5052436;28;20025;-47
2023/01/19 04:11:30;;;;;;;4.38;2.90;;;10.90;99.90;;;;;;5044974;28;20028;-48
2023/01/19 04:13:56;;;;;;;5.13;3.15;;;10.90;99.90;;;;;;5043391;28;20029;-47
2023/01/19 04:16:22;;;;;;;4.53;2.85;;;10.90;99.90;;;;;;5044499;28;20025;-48
2023/01/19 04:18:49;;;;;;;4.82;2.75;;;11.00;99.90;;;;;;5041469;28;20034;-48
2023/01/19 04:21:15;;;;;;;5.05;2.90;;;10.90;99.90;;;;;;5049561;28;20029;-48
2023/01/19 04:23:43;;;;;;;6.43;3.58;;;10.90;99.90;;;;;;5045843;28;20037;-47
2023/01/19 04:26:09;;;;;;;6.35;4.10;;;10.90;99.90;;;;;;5041164;28;20028;-49
2023/01/19 04:28:38;;;;;;;5.40;4.20;;;10.80;99.90;;;;;;5049442;28;20453;-48
2023/01/19 04:31:05;;;;;;;7.07;3.83;;;10.80;99.90;;;;;;5046722;28;20025;-49
2023/01/19 04:33:31;;;;;;;6.70;4.50;;;10.70;99.90;;;;;;5049437;28;20087;-46
2023/01/19 04:35:57;;;;;;;8.10;4.90;;;10.70;99.90;;;;;;5052434;28;20433;-46
2023/01/19 04:38:26;;;;;;;7.43;4.90;;;10.70;99.90;;;;;;5031752;28;20384;-46
2023/01/19 04:40:53;;;;;;;6.65;4.60;;;10.70;99.90;;;;;;5027761;28;20064;-46
2023/01/19 04:43:20;;;;;;;7.25;5.03;;;10.70;99.90;;;;;;5044117;28;20028;-49
2023/01/19 04:45:46;;;;;;;7.30;5.30;;;10.80;99.90;;;;;;5051476;28;20047;-49
2023/01/19 04:48:12;;;;;;;7.28;5.22;;;10.80;99.90;;;;;;5051098;28;20476;-46
2023/01/19 04:50:38;;;;;;;6.78;5.35;;;10.80;99.90;;;;;;5049034;28;20389;-47
2023/01/19 04:53:04;;;;;;;6.85;5.15;;;10.70;99.90;;;;;;5032952;28;20037;-47
2023/01/19 04:55:30;;;;;;;7.07;5.95;;;10.80;99.90;;;;;;5047409;28;20038;-47
2023/01/19 04:57:56;;;;;;;8.13;6.53;;;10.80;99.90;;;;;;5048988;28;20388;-48
2023/01/19 05:00:22;;;;;;;9.93;8.00;;;10.80;99.90;;;;;;5050463;28;20037;-48
2023/01/19 05:02:48;;;;;;;10.13;8.50;;;10.60;99.90;;;;;;5037452;28;20052;-47
2023/01/19 05:05:15;;;;;;;10.43;9.10;;;10.60;99.90;;;;;;5020643;28;20052;-48
2023/01/19 05:07:42;;;;;;;12.80;11.02;;;;;;;;;;5018855;28;20428;-49
2023/01/19 05:10:09;;;;;;;12.55;11.25;;;10.30;99.90;;;;;;5050907;28;20029;-49
2023/01/19 05:12:35;;;;;;;14.02;12.02;;;10.30;99.90;;;;;;5033920;28;20810;-49
2023/01/19 05:15:01;;;;;;;13.93;12.05;;;10.30;99.90;;;;;;5053127;28;20051;-49
2023/01/19 05:17:27;;;;;;;14.85;11.85;;;10.30;99.90;;;;;;5050006;28;20477;-49
2023/01/19 05:19:52;;;;;;;14.02;12.50;;;10.30;99.90;;;;;;5042274;28;20037;-48
2023/01/19 05:22:18;;;;;;;15.15;13.07;;;10.30;99.90;;;;;;5054051;28;20132;-48
2023/01/19 05:24:44;;;;;;;15.77;13.25;;;10.40;99.90;;;;;;5046119;28;20028;-46
2023/01/19 05:27:10;;;;;;;17.65;13.85;;;10.40;99.90;;;;;;5052482;28;20060;-48
2023/01/19 05:29:35;;;;;;;17.70;15.70;;;10.40;99.90;;;;;;5053640;28;20392;-48
2023/01/19 05:32:01;;;;;;;18.30;14.60;;;10.40;99.90;;;;;;5032662;28;20037;-47
2023/01/19 05:34:27;;;;;;;25.33;18.00;;;10.50;99.90;;;;;;5050428;28;20366;-47
2023/01/19 05:36:53;;;;;;;21.10;16.20;;;10.30;99.90;;;;;;5053389;28;20025;-48
2023/01/19 05:39:19;;;;;;;17.33;14.35;;;10.40;99.90;;;;;;5046776;28;20368;-47
2023/01/19 05:41:44;;;;;;;19.15;15.02;;;10.60;99.90;;;;;;5054047;28;20094;-48
2023/01/19 05:44:11;;;;;;;20.98;14.98;;;10.60;99.90;;;;;;5038372;28;20037;-47
2023/01/19 05:46:38;;;;;;;17.25;14.98;;;10.70;99.90;;;;;;5051583;28;20429;-48
2023/01/19 05:49:04;;;;;;;20.02;16.02;;;10.50;99.90;;;;;;5035822;28;20037;-48
2023/01/19 05:51:34;;;;;;;18.92;15.15;;;10.50;99.90;;;;;;5051068;28;20358;-48
2023/01/19 05:54:00;;;;;;;18.33;15.63;;;10.50;99.90;;;;;;5050559;28;20362;-47
2023/01/19 05:56:26;;;;;;;19.73;17.20;;;10.60;99.90;;;;;;5043900;28;20057;-47
2023/01/19 05:58:52;;;;;;;25.15;18.30;;;10.60;99.90;;;;;;5046070;28;20044;-48
2023/01/19 06:01:17;;;;;;;21.05;17.73;;;10.60;99.90;;;;;;5052605;28;20381;-47
2023/01/19 06:03:43;;;;;;;22.00;18.58;;;10.70;99.90;;;;;;5051685;28;20064;-46
2023/01/19 06:06:09;;;;;;;16.95;15.13;;;10.60;99.90;;;;;;5050967;28;20048;-50
2023/01/19 06:08:35;;;;;;;17.25;15.35;;;10.20;99.90;;;;;;5052648;28;20029;-46
2023/01/19 06:11:04;;;;;;;20.92;18.08;;;9.90;99.90;;;;;;5053258;28;20429;-47
2023/01/19 06:13:29;;;;;;;19.55;16.77;;;9.90;99.90;;;;;;5048747;28;20025;-47
2023/01/19 06:15:57;;;;;;;31.63;22.90;;;10.10;99.90;;;;;;5049064;28;20121;-49
2023/01/19 06:18:23;;;;;;;23.85;19.80;;;10.30;99.90;;;;;;5053571;28;20132;-47
2023/01/19 06:20:48;;;;;;;20.58;17.88;;;10.50;99.90;;;;;;5052289;28;20544;-49
2023/01/19 06:23:14;;;;;;;18.27;15.70;;;10.60;99.90;;;;;;5052779;28;20029;-49
2023/01/19 06:25:40;;;;;;;18.27;15.77;;;10.70;99.90;;;;;;5053177;28;20117;-47
2023/01/19 06:28:06;;;;;;;19.10;15.98;;;10.70;99.90;;;;;;5053096;28;20051;-49
2023/01/19 06:30:31;;;;;;;18.25;15.68;;;10.70;99.90;;;;;;5049530;28;20048;-47
2023/01/19 06:32:57;;;;;;;20.40;16.25;;;10.70;99.90;;;;;;5044265;28;20094;-49
2023/01/19 06:35:23;;;;;;;19.80;16.75;;;10.80;99.90;;;;;;5054103;28;20055;-48
2023/01/19 06:37:48;;;;;;;20.88;16.77;;;10.70;99.90;;;;;;5048960;28;20037;-47
2023/01/19 06:40:14;;;;;;;20.65;15.70;;;10.40;99.90;;;;;;5015319;28;20044;-47
2023/01/19 06:42:40;;;;;;;20.80;16.70;;;10.30;99.90;;;;;;5051922;28;20063;-48
2023/01/19 06:45:08;;;;;;;21.27;17.05;;;10.10;99.90;;;;;;5053695;28;20035;-47
2023/01/19 06:47:34;;;;;;;22.60;18.55;;;10.10;99.90;;;;;;5052535;28;20044;-49
2023/01/19 06:50:01;;;;;;;32.63;25.38;;;10.10;99.90;;;;;;5044344;28;20103;-48
2023/01/19 06:52:27;;;;;;;47.53;34.47;;;10.20;99.90;;;;;;5054475;28;20124;-50
2023/01/19 06:54:53;;;;;;;30.40;24.08;;;10.40;99.90;;;;;;5054167;28;20558;-48
2023/01/19 06:57:18;;;;;;;32.90;25.50;;;10.40;99.90;;;;;;5053961;28;20033;-48
2023/01/19 06:59:44;;;;;;;27.73;22.30;;;10.50;99.90;;;;;;5049230;28;20037;-49
2023/01/19 07:02:10;;;;;;;28.15;23.27;;;10.50;99.90;;;;;;5054407;28;20041;-47
2023/01/19 07:04:36;;;;;;;37.97;28.00;;;10.70;99.90;;;;;;5052380;28;20067;-49
2023/01/19 07:07:02;;;;;;;36.97;28.65;;;10.40;99.90;;;;;;5053835;28;20465;-48
2023/01/19 07:09:27;;;;;;;23.58;20.45;;;10.50;99.90;;;;;;5054058;28;20028;-49
2023/01/19 07:11:54;;;;;;;28.88;24.55;;;10.70;99.90;;;;;;5053977;28;20032;-47
2023/01/19 07:14:20;;;;;;;35.17;25.50;;;10.70;99.90;;;;;;5053616;28;20116;-49
2023/01/19 07:16:46;;;;;;;41.78;34.45;;;10.60;99.90;;;;;;5053990;28;20460;-47
2023/01/19 07:19:13;;;;;;;39.28;30.60;;;10.40;99.90;;;;;;5052102;28;20045;-50
2023/01/19 07:21:39;;;;;;;33.35;25.60;;;10.10;99.90;;;;;;5054125;28;20065;-47
2023/01/19 07:24:05;;;;;;;37.63;29.48;;;10.10;99.90;;;;;;5053422;28;20127;-49
2023/01/19 07:26:30;;;;;;;42.97;32.03;;;10.30;99.90;;;;;;5053161;28;20365;-48
2023/01/19 07:28:56;;;;;;;45.03;32.85;;;10.30;99.90;;;;;;5053590;28;20032;-48
2023/01/19 07:31:22;;;;;;;57.63;40.60;;;10.50;99.90;;;;;;5053485;28;20527;-49
2023/01/19 07:33:48;;;;;;;51.83;37.65;;;10.60;99.90;;;;;;5051989;28;20091;-48
2023/01/19 07:36:14;;;;;;;52.30;37.70;;;10.60;99.90;;;;;;5018596;28;20094;-50
2023/01/19 07:38:40;;;;;;;51.00;34.10;;;10.60;99.90;;;;;;5053524;28;20041;-48
2023/01/19 07:41:08;;;;;;;52.08;34.58;;;10.60;99.90;;;;;;5051416;28;20056;-49
2023/01/19 07:43:34;;;;;;;65.40;38.47;;;10.50;99.90;;;;;;5053500;28;20060;-47
2023/01/19 07:46:03;;;;;;;102.47;57.03;;;10.30;99.90;;;;;;5051626;28;20489;-49
2023/01/19 07:48:28;;;;;;;75.10;46.30;;;9.90;99.90;;;;;;5053294;28;20033;-47
2023/01/19 07:51:07;;;;;;;148.38;41.47;;;9.90;99.90;;;;;;5051627;28;20040;-47
2023/01/19 07:53:33;;;;;;;109.47;39.05;;;10.10;99.90;;;;;;5053411;28;20044;-50
2023/01/19 07:55:59;;;;;;;65.63;41.60;;;9.80;99.90;;;;;;5053199;28;20401;-48
2023/01/19 07:58:25;;;;;;;85.93;40.70;;;10.00;99.90;;;;;;5053152;28;20021;-50
2023/01/19 08:00:51;;;;;;;120.38;37.15;;;10.20;99.90;;;;;;5051978;28;20132;-47
2023/01/19 08:03:17;;;;;;;135.50;34.85;;;10.20;99.90;;;;;;5052069;28;20530;-48
2023/01/19 08:05:44;;;;;;;236.23;43.45;;;10.20;99.90;;;;;;5034731;28;20484;-47
2023/01/19 08:08:11;;;;;;;161.27;38.85;;;10.10;99.90;;;;;;5053165;28;20474;-47
2023/01/19 08:10:37;;;;;;;236.13;38.30;;;10.30;99.90;;;;;;5052920;28;20121;-48
2023/01/19 08:13:03;;;;;;;206.18;39.00;;;10.40;99.90;;;;;;5034698;28;20064;-48
2023/01/19 08:15:28;;;;;;;152.02;62.35;;;10.70;99.90;;;;;;5066436;28;20489;-49
2023/01/19 08:17:59;;;;;;;99.38;38.70;;;11.00;99.90;;;;;;5053124;28;20039;-48
2023/01/19 08:20:26;;;;;;;113.35;36.40;;;11.30;99.90;;;;;;5046996;28;20491;-49
2023/01/19 08:22:58;;;;;;;152.85;39.97;;;11.30;99.90;;;;;;5033437;28;20416;-48
2023/01/19 08:25:44;;;;;;;;;;;11.40;99.90;;;;;;5052722;28;20072;-48
2023/01/19 08:28:12;;;;;;;72.13;38.92;;;11.50;99.90;;;;;;5052795;28;19917;-49
2023/01/19 08:30:39;;;;;;;87.57;43.97;;;11.50;99.90;;;;;;5052923;28;20079;-47
2023/01/19 08:33:08;;;;;;;91.60;48.50;;;11.30;99.90;;;;;;5052869;28;20044;-47
2023/01/19 08:35:36;;;;;;;78.72;50.30;;;11.00;99.90;;;;;;5054851;28;20104;-48
2023/01/19 08:38:04;;;;;;;83.68;51.85;;;11.00;99.90;;;;;;5054328;28;20045;-47
2023/01/19 08:40:33;;;;;;;82.05;56.92;;;11.40;99.90;;;;;;5054425;28;21292;-49
2023/01/19 08:43:04;;;;;;;83.22;55.55;;;11.60;99.90;;;;;;5051863;28;20053;-48
2023/01/19 08:45:31;;;;;;;78.67;49.23;;;;;;;;;;5055559;28;20037;-48
2023/01/19 08:47:58;;;;;;;71.00;48.75;;;12.30;99.90;;;;;;5057244;28;20044;-47
2023/01/19 08:50:25;;;;;;;79.78;52.47;;;13.10;99.90;;;;;;5055059;28;20090;-49
2023/01/19 08:52:51;;;;;;;67.13;45.38;;;;;;;;;;5056053;28;20021;-49
2023/01/19 08:55:17;;;;;;;62.35;46.40;;;14.40;99.90;;;;;;5056030;28;20060;-48
2023/01/19 08:57:43;;;;;;;54.97;43.10;;;15.80;99.90;;;;;;5053721;28;20751;-49
2023/01/19 09:00:10;;;;;;;93.25;67.93;;;18.30;99.90;;;;;;5069202;28;20068;-48
2023/01/19 09:02:36;;;;;;;49.83;40.50;;;;;;;;;;5052685;28;20045;-49
2023/01/19 09:05:03;;;;;;;108.68;84.60;;;;;;;;;;5036406;28;20045;-48
2023/01/19 09:07:30;;;;;;;63.50;54.60;;;;;;;;;;5054705;28;20033;-49
2023/01/19 09:09:55;;;;;;;53.28;46.70;;;23.40;99.90;;;;;;5055163;28;20058;-46
2023/01/19 09:12:21;;;;;;;31.10;27.88;;;23.30;99.90;;;;;;5055407;28;20021;-46
2023/01/19 09:14:47;;;;;;;32.92;27.90;;;22.00;99.90;;;;;;5055317;28;20033;-46
2023/01/19 09:17:13;;;;;;;32.38;28.98;;;20.40;99.90;;;;;;5055500;28;20400;-46
2023/01/19 09:19:40;;;;;;;30.48;27.17;;;19.80;99.90;;;;;;5054819;28;20130;-46
2023/01/19 09:22:05;;;;;;;31.45;28.10;;;18.80;99.90;;;;;;5036617;28;20044;-45
2023/01/19 09:24:33;;;;;;;29.05;25.83;;;18.00;99.90;;;;;;5055200;28;20385;-47
2023/01/19 09:27:00;;;;;;;28.40;24.98;;;17.60;99.90;;;;;;5053010;28;20036;-46
2023/01/19 09:29:25;;;;;;;27.10;24.27;;;18.40;99.90;;;;;;5054723;28;20453;-47
2023/01/19 09:31:51;;;;;;;24.98;22.38;;;18.40;99.90;;;;;;5055264;28;20044;-45
2023/01/19 09:34:17;;;;;;;25.83;22.88;;;20.20;99.90;;;;;;5055853;28;20037;-46
2023/01/19 09:36:44;;;;;;;30.27;25.67;;;22.00;99.90;;;;;;5055882;28;20035;-44
2023/01/19 09:39:11;;;;;;;26.35;23.13;;;;;;;;;;5056170;28;20041;-47
2023/01/19 09:41:41;;;;;;;25.55;21.40;;;22.40;99.90;;;;;;5054922;28;20077;-47
2023/01/19 09:44:12;;;;;;;21.15;18.45;;;;;;;;;;5055888;28;20036;-45
2023/01/19 09:46:41;;;;;;;26.45;23.65;;;;;;;;;;5055866;28;20079;-48
2023/01/19 09:49:15;;;;;;;32.25;27.30;;;;;;;;;;5036595;28;20045;-48
2023/01/19 09:51:44;;;;;;;25.05;22.65;;;;;;;;;;5054276;28;20033;-45
2023/01/19 09:54:15;;;;;;;44.08;33.80;;;22.90;99.90;;;;;;5051803;28;20066;-45
2023/01/19 09:56:47;;;;;;;47.53;38.47;;;21.80;99.90;;;;;;5050146;28;20037;-45
2023/01/19 09:59:49;;;;;;;36.40;32.53;;;21.30;99.90;;;;;;5055344;28;20021;-45
2023/01/19 10:02:23;;;;;;;34.78;26.65;;;21.60;99.90;;;;;;5054923;28;20045;-45
2023/01/19 10:04:59;;;;;;;33.15;28.17;;;;;;;;;;5054227;28;20527;-45
2023/01/19 10:07:28;;;;;;;29.15;26.08;;;;;;;;;;5054510;28;20510;-45
2023/01/19 10:10:00;;;;;;;25.10;22.48;;;;;;;;;;5054395;28;20120;-45
2023/01/19 10:12:35;;;;;;;24.60;22.00;;;19.90;99.90;;;;;;5054111;28;20055;-45
2023/01/19 10:15:11;;;;;;;30.85;27.55;;;;;;;;;;5052937;28;20032;-47
2023/01/19 10:17:43;;;;;;;35.17;31.52;;;;;;;;;;5052331;28;20041;-45
2023/01/19 10:20:32;;;;;;;25.65;22.70;;;;;;;;;;5055063;28;20033;-45
2023/01/19 10:22:59;;;;;;;28.98;26.00;;;;;;;;;;5054967;28;20048;-47
2023/01/19 10:25:25;;;;;;;34.42;30.83;;;22.60;99.10;;;;;;5054901;28;20402;-45
2023/01/19 10:27:51;;;;;;;38.28;29.98;;;;;;;;;;5055193;28;20036;-45
2023/01/19 10:30:23;;;;;;;32.13;26.67;;;;;;;;;;5035800;28;20037;-45
2023/01/19 10:32:49;;;;;;;27.65;24.70;;;;;;;;;;5054962;28;20025;-45
2023/01/19 10:35:20;;;;;;;32.60;29.20;;;;;;;;;;5054002;28;20025;-45
2023/01/19 10:37:47;;;;;;;22.97;20.67;;;;;;;;;;5054226;28;20401;-45
2023/01/19 10:40:31;;;;;;;25.08;22.55;;;25.20;95.80;;;;;;5054672;28;20730;-45
2023/01/19 10:42:57;;;;;;;25.02;20.88;;;24.80;95.80;;;;;;5054896;28;20446;-45
2023/01/19 10:45:30;;;;;;;24.13;21.70;;;24.70;95.00;;;;;;5055022;28;20076;-45
2023/01/19 10:48:05;;;;;;;21.77;19.50;;;23.70;96.10;;;;;;5054760;28;20531;-44
2023/01/19 10:50:38;;;;;;;16.80;15.10;;;23.50;96.40;;;;;;5019551;28;20072;-45
2023/01/19 10:53:05;;;;;;;17.10;15.25;;;22.60;96.60;;;;;;5011582;28;20037;-45
2023/01/19 10:55:36;;;;;;;22.17;18.48;;;21.70;97.50;;;;;;5012172;28;20046;-45
2023/01/19 10:58:03;;;;;;;25.52;21.55;;;20.50;97.90;;;;;;5011854;28;20542;-47
2023/01/19 11:00:32;;;;;;;25.33;20.77;;;;;;;;;;4996240;28;20128;-45
2023/01/19 11:02:58;;;;;;;24.73;18.70;;;18.60;99.90;;;;;;5012421;28;20045;-44
2023/01/19 11:05:28;;;;;;;20.77;13.60;;;16.90;99.90;;;;;;5012660;28;20514;-45
2023/01/19 11:07:54;;;;;;;16.10;12.15;;;16.60;99.90;;;;;;5012463;28;20112;-45
2023/01/19 11:10:21;;;;;;;22.10;16.70;;;15.10;99.90;;;;;;5012222;28;20096;-44
2023/01/19 11:13:03;;;;;;;23.48;19.77;;;14.70;99.90;;;;;;5012279;28;20444;-45
2023/01/19 11:15:41;;;;;;;21.10;16.67;;;;;;;;;;5012361;28;20160;-47
2023/01/19 11:18:07;;;;;;;13.10;11.23;;;;;;;;;;5012230;28;20080;-47
2023/01/19 11:21:01;;;;;;;9.57;8.13;;;;;;;;;;5010515;28;20529;-48
2023/01/19 11:23:41;;;;;;;6.60;5.53;;;12.90;99.90;;;;;;5016801;28;20389;-47
2023/01/19 11:26:15;;;;;;;6.22;5.40;;;12.40;99.90;;;;;;5051569;28;20370;-47
2023/01/19 11:28:48;;;;;;;4.72;4.25;;;12.10;99.90;;;;;;5050205;28;20086;-47
2023/01/19 11:31:14;;;;;;;6.72;4.22;;;;;;;;;;5051072;28;20033;-47
2023/01/19 11:33:48;;;;;;;5.25;3.65;;;;;;;;;;5053293;28;20029;-47
2023/01/19 11:36:17;;;;;;;4.30;3.88;;;;;;;;;;5053138;28;20057;-47
2023/01/19 11:38:45;;;;;;;3.30;2.53;;;;;;;;;;5050118;28;20393;-48
2023/01/19 11:41:25;;;;;;;3.45;2.90;;;;;;;;;;5051542;28;20037;-46
2023/01/19 11:43:53;;;;;;;4.60;2.78;;;;;;;;;;5050618;28;20036;-47
2023/01/19 11:46:24;;;;;;;6.20;3.33;;;;;;;;;;5058166;28;20101;-48
2023/01/19 11:49:01;;;;;;;3.40;2.40;;;;;;;;;;5050934;28;20104;-42
2023/01/19 11:51:29;;;;;;;4.82;2.60;;;;;;;;;;5045236;28;20071;-46
2023/01/19 11:53:55;;;;;;;5.30;3.13;;;;;;;;;;5052721;28;20059;-50
2023/01/19 11:56:23;;;;;;;2.25;1.73;;;;;;;;;;5051919;28;20041;-50
2023/01/19 11:58:50;;;;;;;6.70;3.85;;;;;;;;;;5050249;28;20028;-51
2023/01/19 12:01:25;;;;;;;11.48;6.60;;;;;;;;;;5050312;28;20112;-49
2023/01/19 12:03:58;;;;;;;4.05;2.67;;;;;;;;;;5050523;28;20032;-48
2023/01/19 12:06:35;;;;;;;7.50;3.70;;;;;;;;;;5052495;28;20116;-49
2023/01/19 12:09:05;;;;;;;6.90;4.10;;;;;;;;;;5052870;28;20017;-48
2023/01/19 12:11:35;;;;;;;6.93;3.25;;;;;;;;;;5050153;28;20119;-47
2023/01/19 12:14:02;;;;;;;2.70;2.17;;;;;;;;;;5052900;28;20031;-48
2023/01/19 12:16:34;;;;;;;5.03;2.67;;;;;;;;;;5052324;28;20029;-48
2023/01/19 12:19:23;;;;;;;2.70;2.30;;;10.50;99.90;;;;;;5052608;28;20457;-46
2023/01/19 12:21:51;;;;;;;6.50;4.03;;;;;;;;;;5049702;28;20064;-49
2023/01/19 12:24:36;;;;;;;4.18;2.75;;;10.70;99.90;;;;;;5052656;28;20083;-49
2023/01/19 12:27:07;;;;;;;5.03;3.00;;;;;;;;;;5051873;28;20025;-51
2023/01/19 12:29:34;;;;;;;2.97;2.25;;;;;;;;;;5050223;28;20028;-50
2023/01/19 12:32:12;;;;;;;4.55;3.30;;;10.20;99.90;;;;;;5052488;28;20108;-50
2023/01/19 12:34:43;;;;;;;5.57;4.38;;;10.00;99.90;;;;;;5051236;28;20029;-49
2023/01/19 12:37:30;;;;;;;7.75;4.15;;;10.20;99.90;;;;;;5014579;28;20037;-48
2023/01/19 12:39:59;;;;;;;2.67;1.83;;;10.30;99.90;;;;;;5050728;28;20063;-50
2023/01/19 12:42:25;;;;;;;6.25;3.17;;;10.20;99.90;;;;;;5052215;28;20037;-50
2023/01/19 12:45:07;;;;;;;6.22;3.17;;;10.50;99.90;;;;;;5052296;28;20025;-49
2023/01/19 12:47:34;;;;;;;3.72;2.20;;;10.90;99.90;;;;;;5049050;28;20075;-50
2023/01/19 12:50:05;;;;;;;2.75;1.50;;;11.00;99.90;;;;;;5052485;28;20033;-51
2023/01/19 12:52:33;;;;;;;2.03;1.60;;;11.00;99.90;;;;;;5015588;28;20049;-49
2023/01/19 12:55:18;;;;;;;1.60;1.40;;;11.40;99.90;;;;;;5051956;28;20489;-49
2023/01/19 12:58:20;;;;;;;1.88;1.42;;;11.40;99.90;;;;;;5052134;28;20033;-49
2023/01/19 13:00:50;;;;;;;2.73;1.70;;;;;;;;;;5049187;28;20033;-50
2023/01/19 13:03:16;;;;;;;2.55;2.13;;;;;;;;;;5051102;28;20331;-50
2023/01/19 13:05:42;;;;;;;3.83;2.70;;;10.30;99.90;;;;;;5052359;28;20090;-49
2023/01/19 13:08:08;;;;;;;1.92;1.52;;;10.40;99.90;;;;;;5052994;28;20457;-49
2023/01/19 13:10:52;;;;;;;2.90;1.88;;;;;;;;;;5052427;28;20456;-50
2023/01/19 13:13:20;;;;;;;4.65;1.88;;;;;;;;;;5052362;28;20029;-49
2023/01/19 13:15:46;;;;;;;2.75;1.92;;;;;;;;;;5052225;28;20397;-49
2023/01/19 13:18:21;;;;;;;2.67;2.00;;;;;;;;;;5052355;28;20477;-49